sensor_id;sensor_type;location;lat;lon;timestamp;temperature;humidity
56428;DHT22;42331;53.578;9.760;2023-07-31T00:02:28;14.50;99.90
56428;DHT22;42331;53.578;9.760;2023-07-31T00:04:59;14.50;99.90
56428;DHT22;42331;53.578;9.760;2023-07-31T00:07:30;14.50;99.90
56428;DHT22;42331;53.578;9.760;2023-07-31T00:10:01;14.60;99.90
56428;DHT22;42331;53.578;9.760;2023-07-31T00:12:31;14.60;99.90
56428;DHT22;42331;53.578;9.760;2023-07-31T00:15:03;14.60;99.90
56428;DHT22;42331;53.578;9.760;2023-07-31T00:17:35;14.60;99.90
56428;DHT22;42331;53.578;9.760;2023-07-31T00:20:06;14.60;99.90
56428;DHT22;42331;53.578;9.760;2023-07-31T00:22:37;14.60;99.90
56428;DHT22;42331;53.578;9.760;2023-07-31T00:25:08;14.60;99.90
56428;DHT22;42331;53.578;9.760;2023-07-31T00:27:39;14.60;99.90
56428;DHT22;42331;53.578;9.760;2023-07-31T00:30:10;14.60;99.90
56428;DHT22;42331;53.578;9.760;2023-07-31T00:32:41;14.60;99.90
56428;DHT22;42331;53.578;9.760;2023-07-31T00:35:11;14.60;99.90
56428;DHT22;42331;53.578;9.760;2023-07-31T00:37:42;14.60;99.90
56428;DHT22;42331;53.578;9.760;2023-07-31T00:40:13;14.60;99.90
56428;DHT22;42331;53.578;9.760;2023-07-31T00:42:44;14.60;99.90
56428;DHT22;42331;53.578;9.760;2023-07-31T00:45:15;14.60;99.90
56428;DHT22;42331;53.578;9.760;2023-07-31T00:47:46;14.60;99.90
56428;DHT22;42331;53.578;9.760;2023-07-31T00:50:16;14.60;99.90
56428;DHT22;42331;53.578;9.760;2023-07-31T00:52:47;14.60;99.90
56428;DHT22;42331;53.578;9.760;2023-07-31T00:55:18;14.60;99.90
56428;DHT22;42331;53.578;9.760;2023-07-31T00:57:49;14.50;99.90
56428;DHT22;42331;53.578;9.760;2023-07-31T01:00:22;14.50;99.90
56428;DHT22;42331;53.578;9.760;2023-07-31T01:02:53;14.50;99.90
56428;DHT22;42331;53.578;9.760;2023-07-31T01:08:44;14.50;99.90
56428;DHT22;42331;53.578;9.760;2023-07-31T01:11:33;14.50;99.90
56428;DHT22;42331;53.578;9.760;2023-07-31T01:14:05;14.40;99.90
56428;DHT22;42331;53.578;9.760;2023-07-31T01:16:36;14.40;99.90
56428;DHT22;42331;53.578;9.760;2023-07-31T01:19:09;14.40;99.90
56428;DHT22;42331;53.578;9.760;2023-07-31T01:27:34;14.40;99.90
56428;DHT22;42331;53.578;9.760;2023-07-31T01:30:12;14.40;99.90
56428;DHT22;42331;53.578;9.760;2023-07-31T01:32:48;14.30;99.90
56428;DHT22;42331;53.578;9.760;2023-07-31T01:35:20;14.40;99.90
56428;DHT22;42331;53.578;9.760;2023-07-31T01:37:52;14.40;99.90
56428;DHT22;42331;53.578;9.760;2023-07-31T01:40:24;14.40;99.90
56428;DHT22;42331;53.578;9.760;2023-07-31T01:42:55;14.40;99.90
56428;DHT22;42331;53.578;9.760;2023-07-31T01:45:25;14.40;99.90
56428;DHT22;42331;53.578;9.760;2023-07-31T01:47:57;14.40;99.90
56428;DHT22;42331;53.578;9.760;2023-07-31T01:50:27;14.40;99.90
56428;DHT22;42331;53.578;9.760;2023-07-31T01:52:58;14.40;99.90
56428;DHT22;42331;53.578;9.760;2023-07-31T01:55:29;14.40;99.90
56428;DHT22;42331;53.578;9.760;2023-07-31T01:57:59;14.40;99.90
56428;DHT22;42331;53.578;9.760;2023-07-31T02:00:30;14.40;99.90
56428;DHT22;42331;53.578;9.760;2023-07-31T02:03:01;14.40;99.90
56428;DHT22;42331;53.578;9.760;2023-07-31T02:05:31;14.40;99.90
56428;DHT22;42331;53.578;9.760;2023-07-31T02:08:02;14.50;99.90
56428;DHT22;42331;53.578;9.760;2023-07-31T02:10:33;14.50;99.90
56428;DHT22;42331;53.578;9.760;2023-07-31T02:13:03;14.50;99.90
56428;DHT22;42331;53.578;9.760;2023-07-31T02:15:34;14.50;99.90
56428;DHT22;42331;53.578;9.760;2023-07-31T02:18:05;14.50;99.90
56428;DHT22;42331;53.578;9.760;2023-07-31T02:20:36;14.50;99.90
56428;DHT22;42331;53.578;9.760;2023-07-31T02:23:06;14.60;99.90
56428;DHT22;42331;53.578;9.760;2023-07-31T02:25:37;14.60;99.90
56428;DHT22;42331;53.578;9.760;2023-07-31T02:28:08;14.60;99.90
56428;DHT22;42331;53.578;9.760;2023-07-31T02:30:38;14.60;99.90
56428;DHT22;42331;53.578;9.760;2023-07-31T02:33:09;14.60;99.90
56428;DHT22;42331;53.578;9.760;2023-07-31T02:35:40;14.60;99.90
56428;DHT22;42331;53.578;9.760;2023-07-31T02:38:10;14.70;99.90
56428;DHT22;42331;53.578;9.760;2023-07-31T02:40:41;14.70;99.90
56428;DHT22;42331;53.578;9.760;2023-07-31T02:43:12;14.70;99.90
56428;DHT22;42331;53.578;9.760;2023-07-31T02:45:42;14.70;99.90
56428;DHT22;42331;53.578;9.760;2023-07-31T02:48:13;14.70;99.90
56428;DHT22;42331;53.578;9.760;2023-07-31T02:50:45;14.80;99.90
56428;DHT22;42331;53.578;9.760;2023-07-31T02:53:16;14.80;99.90
56428;DHT22;42331;53.578;9.760;2023-07-31T02:55:46;14.70;99.90
56428;DHT22;42331;53.578;9.760;2023-07-31T02:58:17;14.80;99.90
56428;DHT22;42331;53.578;9.760;2023-07-31T03:00:48;14.80;99.90
56428;DHT22;42331;53.578;9.760;2023-07-31T03:03:18;14.80;99.90
56428;DHT22;42331;53.578;9.760;2023-07-31T03:05:49;14.80;99.90
56428;DHT22;42331;53.578;9.760;2023-07-31T03:08:20;14.80;99.90
56428;DHT22;42331;53.578;9.760;2023-07-31T03:10:51;14.80;99.90
56428;DHT22;42331;53.578;9.760;2023-07-31T03:13:22;14.80;99.90
56428;DHT22;42331;53.578;9.760;2023-07-31T03:15:52;14.80;99.90
56428;DHT22;42331;53.578;9.760;2023-07-31T03:18:23;14.80;99.90
56428;DHT22;42331;53.578;9.760;2023-07-31T03:20:54;14.90;99.90
56428;DHT22;42331;53.578;9.760;2023-07-31T03:23:25;14.90;99.90
56428;DHT22;42331;53.578;9.760;2023-07-31T03:25:57;14.90;99.90
56428;DHT22;42331;53.578;9.760;2023-07-31T03:28:28;14.90;99.90
56428;DHT22;42331;53.578;9.760;2023-07-31T03:30:59;14.90;99.90
56428;DHT22;42331;53.578;9.760;2023-07-31T03:33:30;14.90;99.90
56428;DHT22;42331;53.578;9.760;2023-07-31T03:36:01;14.90;99.90
56428;DHT22;42331;53.578;9.760;2023-07-31T03:38:32;15.00;99.90
56428;DHT22;42331;53.578;9.760;2023-07-31T03:41:03;15.00;99.90
56428;DHT22;42331;53.578;9.760;2023-07-31T03:43:34;15.00;99.90
56428;DHT22;42331;53.578;9.760;2023-07-31T03:46:04;15.00;99.90
56428;DHT22;42331;53.578;9.760;2023-07-31T03:48:35;15.00;99.90
56428;DHT22;42331;53.578;9.760;2023-07-31T03:51:06;15.00;99.90
56428;DHT22;42331;53.578;9.760;2023-07-31T03:53:36;15.00;99.90
56428;DHT22;42331;53.578;9.760;2023-07-31T03:56:07;15.10;99.90
56428;DHT22;42331;53.578;9.760;2023-07-31T03:58:38;15.10;99.90
56428;DHT22;42331;53.578;9.760;2023-07-31T04:01:08;15.10;99.90
56428;DHT22;42331;53.578;9.760;2023-07-31T04:03:39;15.10;99.90
56428;DHT22;42331;53.578;9.760;2023-07-31T04:06:10;15.10;99.90
56428;DHT22;42331;53.578;9.760;2023-07-31T04:08:41;15.10;99.90
56428;DHT22;42331;53.578;9.760;2023-07-31T04:11:11;15.10;99.90
56428;DHT22;42331;53.578;9.760;2023-07-31T04:13:42;15.10;99.90
56428;DHT22;42331;53.578;9.760;2023-07-31T04:16:13;15.10;99.90
56428;DHT22;42331;53.578;9.760;2023-07-31T04:18:44;15.10;99.90
56428;DHT22;42331;53.578;9.760;2023-07-31T04:21:15;15.10;99.90
56428;DHT22;42331;53.578;9.760;2023-07-31T04:23:45;15.10;99.90
56428;DHT22;42331;53.578;9.760;2023-07-31T04:26:16;15.10;99.90
56428;DHT22;42331;53.578;9.760;2023-07-31T04:28:47;15.10;99.90
56428;DHT22;42331;53.578;9.760;2023-07-31T04:31:18;15.10;99.90
56428;DHT22;42331;53.578;9.760;2023-07-31T04:33:48;15.00;99.90
56428;DHT22;42331;53.578;9.760;2023-07-31T04:36:19;15.00;99.90
56428;DHT22;42331;53.578;9.760;2023-07-31T04:38:50;15.00;99.90
56428;DHT22;42331;53.578;9.760;2023-07-31T04:41:20;14.90;99.90
56428;DHT22;42331;53.578;9.760;2023-07-31T04:43:52;14.90;99.90
56428;DHT22;42331;53.578;9.760;2023-07-31T04:46:22;14.90;99.90
56428;DHT22;42331;53.578;9.760;2023-07-31T04:48:53;14.90;99.90
56428;DHT22;42331;53.578;9.760;2023-07-31T04:51:24;14.90;99.90
56428;DHT22;42331;53.578;9.760;2023-07-31T04:53:56;14.80;99.90
56428;DHT22;42331;53.578;9.760;2023-07-31T04:56:27;14.90;99.90
56428;DHT22;42331;53.578;9.760;2023-07-31T04:58:57;14.90;99.90
56428;DHT22;42331;53.578;9.760;2023-07-31T05:01:28;14.90;99.90
56428;DHT22;42331;53.578;9.760;2023-07-31T05:03:59;14.90;99.90
56428;DHT22;42331;53.578;9.760;2023-07-31T05:06:29;14.90;99.90
56428;DHT22;42331;53.578;9.760;2023-07-31T05:09:00;14.90;99.90
56428;DHT22;42331;53.578;9.760;2023-07-31T05:11:31;14.90;99.90
56428;DHT22;42331;53.578;9.760;2023-07-31T05:14:01;14.90;99.90
56428;DHT22;42331;53.578;9.760;2023-07-31T05:16:32;14.90;99.90
56428;DHT22;42331;53.578;9.760;2023-07-31T05:19:03;14.90;99.90
56428;DHT22;42331;53.578;9.760;2023-07-31T05:21:33;14.90;99.90
56428;DHT22;42331;53.578;9.760;2023-07-31T05:24:04;14.90;99.90
56428;DHT22;42331;53.578;9.760;2023-07-31T05:26:35;14.90;99.90
56428;DHT22;42331;53.578;9.760;2023-07-31T05:29:06;14.90;99.90
56428;DHT22;42331;53.578;9.760;2023-07-31T05:31:36;14.90;99.90
56428;DHT22;42331;53.578;9.760;2023-07-31T05:34:08;14.90;99.90
56428;DHT22;42331;53.578;9.760;2023-07-31T05:36:39;14.90;99.90
56428;DHT22;42331;53.578;9.760;2023-07-31T05:39:10;14.90;99.90
56428;DHT22;42331;53.578;9.760;2023-07-31T05:41:40;14.90;99.90
56428;DHT22;42331;53.578;9.760;2023-07-31T05:44:11;14.90;99.90
56428;DHT22;42331;53.578;9.760;2023-07-31T05:46:42;14.90;99.90
56428;DHT22;42331;53.578;9.760;2023-07-31T05:49:12;15.00;99.90
56428;DHT22;42331;53.578;9.760;2023-07-31T05:51:43;15.00;99.90
56428;DHT22;42331;53.578;9.760;2023-07-31T05:54:14;15.00;99.90
56428;DHT22;42331;53.578;9.760;2023-07-31T05:56:44;15.00;99.90
56428;DHT22;42331;53.578;9.760;2023-07-31T05:59:16;15.00;99.90
56428;DHT22;42331;53.578;9.760;2023-07-31T06:01:47;15.00;99.90
56428;DHT22;42331;53.578;9.760;2023-07-31T06:04:17;15.00;99.90
56428;DHT22;42331;53.578;9.760;2023-07-31T06:06:48;15.10;99.90
56428;DHT22;42331;53.578;9.760;2023-07-31T06:09:19;15.00;99.90
56428;DHT22;42331;53.578;9.760;2023-07-31T06:11:50;15.10;99.90
56428;DHT22;42331;53.578;9.760;2023-07-31T06:14:21;15.10;99.90
56428;DHT22;42331;53.578;9.760;2023-07-31T06:16:52;15.10;99.90
56428;DHT22;42331;53.578;9.760;2023-07-31T06:19:22;15.10;99.90
56428;DHT22;42331;53.578;9.760;2023-07-31T06:21:53;15.10;99.90
56428;DHT22;42331;53.578;9.760;2023-07-31T06:24:24;15.10;99.90
56428;DHT22;42331;53.578;9.760;2023-07-31T06:26:55;15.10;99.90
56428;DHT22;42331;53.578;9.760;2023-07-31T06:29:25;15.10;99.90
56428;DHT22;42331;53.578;9.760;2023-07-31T06:31:56;15.10;99.90
56428;DHT22;42331;53.578;9.760;2023-07-31T06:34:27;15.10;99.90
56428;DHT22;42331;53.578;9.760;2023-07-31T06:36:57;15.10;99.90
56428;DHT22;42331;53.578;9.760;2023-07-31T06:39:28;15.00;99.90
56428;DHT22;42331;53.578;9.760;2023-07-31T06:41:59;15.10;99.90
56428;DHT22;42331;53.578;9.760;2023-07-31T06:44:29;15.10;99.90
56428;DHT22;42331;53.578;9.760;2023-07-31T06:47:00;15.10;99.90
56428;DHT22;42331;53.578;9.760;2023-07-31T06:49:31;15.10;99.90
56428;DHT22;42331;53.578;9.760;2023-07-31T06:52:01;15.10;99.90
56428;DHT22;42331;53.578;9.760;2023-07-31T06:54:32;15.10;99.90
56428;DHT22;42331;53.578;9.760;2023-07-31T06:57:03;15.20;99.90
56428;DHT22;42331;53.578;9.760;2023-07-31T06:59:34;15.20;99.90
56428;DHT22;42331;53.578;9.760;2023-07-31T07:02:05;15.20;99.90
56428;DHT22;42331;53.578;9.760;2023-07-31T07:04:36;15.30;99.90
56428;DHT22;42331;53.578;9.760;2023-07-31T07:07:07;15.20;99.90
56428;DHT22;42331;53.578;9.760;2023-07-31T07:09:38;15.20;99.90
56428;DHT22;42331;53.578;9.760;2023-07-31T07:12:08;15.20;99.90
56428;DHT22;42331;53.578;9.760;2023-07-31T07:14:39;15.30;99.90
56428;DHT22;42331;53.578;9.760;2023-07-31T07:17:10;15.30;99.90
56428;DHT22;42331;53.578;9.760;2023-07-31T07:19:41;15.30;99.90
56428;DHT22;42331;53.578;9.760;2023-07-31T07:22:12;15.30;99.90
56428;DHT22;42331;53.578;9.760;2023-07-31T07:24:43;15.30;99.90
56428;DHT22;42331;53.578;9.760;2023-07-31T07:27:13;15.30;99.90
56428;DHT22;42331;53.578;9.760;2023-07-31T07:29:46;15.30;99.90
56428;DHT22;42331;53.578;9.760;2023-07-31T07:32:16;15.30;99.90
56428;DHT22;42331;53.578;9.760;2023-07-31T07:34:48;15.40;99.90
56428;DHT22;42331;53.578;9.760;2023-07-31T07:37:19;15.50;99.90
56428;DHT22;42331;53.578;9.760;2023-07-31T07:39:50;15.50;99.90
56428;DHT22;42331;53.578;9.760;2023-07-31T07:42:20;15.50;99.90
56428;DHT22;42331;53.578;9.760;2023-07-31T07:44:51;15.50;99.90
56428;DHT22;42331;53.578;9.760;2023-07-31T07:47:22;15.50;99.90
56428;DHT22;42331;53.578;9.760;2023-07-31T07:49:52;15.50;99.90
56428;DHT22;42331;53.578;9.760;2023-07-31T07:52:23;15.60;99.90
56428;DHT22;42331;53.578;9.760;2023-07-31T07:54:54;15.70;99.90
56428;DHT22;42331;53.578;9.760;2023-07-31T07:57:24;15.70;99.90
56428;DHT22;42331;53.578;9.760;2023-07-31T07:59:55;15.70;99.90
56428;DHT22;42331;53.578;9.760;2023-07-31T08:02:26;15.70;99.90
56428;DHT22;42331;53.578;9.760;2023-07-31T08:04:56;15.80;99.90
56428;DHT22;42331;53.578;9.760;2023-07-31T08:07:27;15.80;99.90
56428;DHT22;42331;53.578;9.760;2023-07-31T08:09:58;15.90;99.90
56428;DHT22;42331;53.578;9.760;2023-07-31T08:12:29;15.90;99.90
56428;DHT22;42331;53.578;9.760;2023-07-31T08:15:00;15.80;99.90
56428;DHT22;42331;53.578;9.760;2023-07-31T08:17:31;15.80;99.90
56428;DHT22;42331;53.578;9.760;2023-07-31T08:20:01;15.80;99.90
56428;DHT22;42331;53.578;9.760;2023-07-31T08:22:32;15.90;99.90
56428;DHT22;42331;53.578;9.760;2023-07-31T08:25:03;15.90;99.90
56428;DHT22;42331;53.578;9.760;2023-07-31T08:27:34;16.00;99.90
56428;DHT22;42331;53.578;9.760;2023-07-31T08:30:05;16.00;99.90
56428;DHT22;42331;53.578;9.760;2023-07-31T08:32:36;15.90;99.90
56428;DHT22;42331;53.578;9.760;2023-07-31T08:35:07;15.90;99.90
56428;DHT22;42331;53.578;9.760;2023-07-31T08:37:38;15.90;99.90
56428;DHT22;42331;53.578;9.760;2023-07-31T08:40:09;15.90;99.90
56428;DHT22;42331;53.578;9.760;2023-07-31T08:42:47;15.90;99.90
56428;DHT22;42331;53.578;9.760;2023-07-31T08:45:19;15.90;99.90
56428;DHT22;42331;53.578;9.760;2023-07-31T08:47:51;16.00;99.90
56428;DHT22;42331;53.578;9.760;2023-07-31T08:50:22;16.10;99.90
56428;DHT22;42331;53.578;9.760;2023-07-31T08:52:53;16.20;99.90
56428;DHT22;42331;53.578;9.760;2023-07-31T08:55:24;16.20;99.90
56428;DHT22;42331;53.578;9.760;2023-07-31T08:57:56;16.20;99.90
56428;DHT22;42331;53.578;9.760;2023-07-31T09:00:27;16.20;99.90
56428;DHT22;42331;53.578;9.760;2023-07-31T09:03:07;16.20;99.90
56428;DHT22;42331;53.578;9.760;2023-07-31T09:05:41;16.10;99.90
56428;DHT22;42331;53.578;9.760;2023-07-31T09:08:14;16.00;99.90
56428;DHT22;42331;53.578;9.760;2023-07-31T09:10:46;16.00;99.90
56428;DHT22;42331;53.578;9.760;2023-07-31T09:13:17;16.00;99.90
56428;DHT22;42331;53.578;9.760;2023-07-31T09:15:48;16.00;99.90
56428;DHT22;42331;53.578;9.760;2023-07-31T09:18:19;16.00;99.90
56428;DHT22;42331;53.578;9.760;2023-07-31T09:21:05;16.00;99.90
56428;DHT22;42331;53.578;9.760;2023-07-31T09:23:46;16.00;99.90
56428;DHT22;42331;53.578;9.760;2023-07-31T09:26:31;16.00;99.90
56428;DHT22;42331;53.578;9.760;2023-07-31T09:29:05;15.90;99.90
56428;DHT22;42331;53.578;9.760;2023-07-31T09:31:42;15.90;99.90
56428;DHT22;42331;53.578;9.760;2023-07-31T09:34:13;15.90;99.90
56428;DHT22;42331;53.578;9.760;2023-07-31T09:36:48;15.90;99.90
56428;DHT22;42331;53.578;9.760;2023-07-31T09:39:19;16.00;99.90
56428;DHT22;42331;53.578;9.760;2023-07-31T09:41:54;16.10;99.90
56428;DHT22;42331;53.578;9.760;2023-07-31T09:44:41;16.00;99.90
56428;DHT22;42331;53.578;9.760;2023-07-31T09:47:22;15.90;99.90
56428;DHT22;42331;53.578;9.760;2023-07-31T09:49:56;15.90;99.90
56428;DHT22;42331;53.578;9.760;2023-07-31T09:52:26;16.00;99.90
56428;DHT22;42331;53.578;9.760;2023-07-31T09:54:57;16.10;99.90
56428;DHT22;42331;53.578;9.760;2023-07-31T09:57:28;16.00;99.90
56428;DHT22;42331;53.578;9.760;2023-07-31T10:00:00;15.90;99.90
56428;DHT22;42331;53.578;9.760;2023-07-31T10:02:31;15.90;99.90
56428;DHT22;42331;53.578;9.760;2023-07-31T10:05:03;15.80;99.90
56428;DHT22;42331;53.578;9.760;2023-07-31T10:07:36;15.80;99.90
56428;DHT22;42331;53.578;9.760;2023-07-31T10:10:08;15.90;99.90
56428;DHT22;42331;53.578;9.760;2023-07-31T10:12:42;15.90;99.90
56428;DHT22;42331;53.578;9.760;2023-07-31T10:15:15;15.90;99.90
56428;DHT22;42331;53.578;9.760;2023-07-31T10:17:50;15.80;99.90
56428;DHT22;42331;53.578;9.760;2023-07-31T10:20:21;15.80;99.90
56428;DHT22;42331;53.578;9.760;2023-07-31T10:22:52;15.70;99.90
56428;DHT22;42331;53.578;9.760;2023-07-31T10:25:26;15.50;99.90
56428;DHT22;42331;53.578;9.760;2023-07-31T10:27:57;15.60;99.90
56428;DHT22;42331;53.578;9.760;2023-07-31T10:30:31;15.60;99.90
56428;DHT22;42331;53.578;9.760;2023-07-31T10:33:03;15.70;99.90
56428;DHT22;42331;53.578;9.760;2023-07-31T10:35:34;15.70;99.90
56428;DHT22;42331;53.578;9.760;2023-07-31T10:38:10;15.70;99.90
56428;DHT22;42331;53.578;9.760;2023-07-31T10:40:44;15.60;99.90
56428;DHT22;42331;53.578;9.760;2023-07-31T10:43:25;15.50;99.90
56428;DHT22;42331;53.578;9.760;2023-07-31T10:45:57;15.40;99.90
56428;DHT22;42331;53.578;9.760;2023-07-31T10:48:33;15.40;99.90
56428;DHT22;42331;53.578;9.760;2023-07-31T10:51:08;15.50;99.90
56428;DHT22;42331;53.578;9.760;2023-07-31T10:53:40;15.50;99.90
56428;DHT22;42331;53.578;9.760;2023-07-31T10:56:12;15.50;99.90
56428;DHT22;42331;53.578;9.760;2023-07-31T10:58:45;15.60;99.90
56428;DHT22;42331;53.578;9.760;2023-07-31T11:01:16;15.50;99.90
56428;DHT22;42331;53.578;9.760;2023-07-31T11:03:49;15.50;99.90
56428;DHT22;42331;53.578;9.760;2023-07-31T11:06:19;15.50;99.90
56428;DHT22;42331;53.578;9.760;2023-07-31T11:08:51;15.50;99.90
56428;DHT22;42331;53.578;9.760;2023-07-31T11:11:21;15.50;99.90
56428;DHT22;42331;53.578;9.760;2023-07-31T11:13:53;15.60;99.90
56428;DHT22;42331;53.578;9.760;2023-07-31T11:16:25;15.50;99.90
56428;DHT22;42331;53.578;9.760;2023-07-31T11:18:55;15.40;99.90
56428;DHT22;42331;53.578;9.760;2023-07-31T11:21:26;15.40;99.90
56428;DHT22;42331;53.578;9.760;2023-07-31T11:23:58;15.50;99.90
56428;DHT22;42331;53.578;9.760;2023-07-31T11:26:29;15.50;99.90
56428;DHT22;42331;53.578;9.760;2023-07-31T11:29:01;15.50;99.90
56428;DHT22;42331;53.578;9.760;2023-07-31T11:31:31;15.50;99.90
56428;DHT22;42331;53.578;9.760;2023-07-31T11:34:07;15.50;99.90
56428;DHT22;42331;53.578;9.760;2023-07-31T11:36:38;15.50;99.90
56428;DHT22;42331;53.578;9.760;2023-07-31T11:39:10;15.60;99.90
56428;DHT22;42331;53.578;9.760;2023-07-31T11:41:41;15.60;99.90
56428;DHT22;42331;53.578;9.760;2023-07-31T11:44:12;15.60;99.90
56428;DHT22;42331;53.578;9.760;2023-07-31T11:46:42;15.40;99.90
56428;DHT22;42331;53.578;9.760;2023-07-31T11:49:13;15.40;99.90
56428;DHT22;42331;53.578;9.760;2023-07-31T11:51:44;15.40;99.90
56428;DHT22;42331;53.578;9.760;2023-07-31T11:54:15;15.30;99.90
56428;DHT22;42331;53.578;9.760;2023-07-31T11:56:46;15.30;99.90
56428;DHT22;42331;53.578;9.760;2023-07-31T11:59:17;15.30;99.90
56428;DHT22;42331;53.578;9.760;2023-07-31T12:01:47;15.30;99.90
56428;DHT22;42331;53.578;9.760;2023-07-31T12:04:20;15.20;99.90
56428;DHT22;42331;53.578;9.760;2023-07-31T12:06:53;15.20;99.90
56428;DHT22;42331;53.578;9.760;2023-07-31T12:09:24;15.20;99.90
56428;DHT22;42331;53.578;9.760;2023-07-31T12:11:56;15.30;99.90
56428;DHT22;42331;53.578;9.760;2023-07-31T12:14:28;15.30;99.90
56428;DHT22;42331;53.578;9.760;2023-07-31T12:17:04;15.20;99.90
56428;DHT22;42331;53.578;9.760;2023-07-31T12:19:35;15.20;99.90
56428;DHT22;42331;53.578;9.760;2023-07-31T12:22:15;15.30;99.90
56428;DHT22;42331;53.578;9.760;2023-07-31T12:24:46;15.20;99.90
56428;DHT22;42331;53.578;9.760;2023-07-31T12:27:17;15.20;99.90
56428;DHT22;42331;53.578;9.760;2023-07-31T12:29:49;15.30;99.90
56428;DHT22;42331;53.578;9.760;2023-07-31T12:32:23;15.30;99.90
56428;DHT22;42331;53.578;9.760;2023-07-31T12:34:59;15.30;99.90
56428;DHT22;42331;53.578;9.760;2023-07-31T12:37:30;15.40;99.90
56428;DHT22;42331;53.578;9.760;2023-07-31T12:40:02;15.50;99.90
56428;DHT22;42331;53.578;9.760;2023-07-31T12:42:35;15.60;99.90
56428;DHT22;42331;53.578;9.760;2023-07-31T12:45:05;15.60;99.90
56428;DHT22;42331;53.578;9.760;2023-07-31T12:47:36;15.60;99.90
56428;DHT22;42331;53.578;9.760;2023-07-31T12:50:07;15.60;99.90
56428;DHT22;42331;53.578;9.760;2023-07-31T12:52:38;15.60;99.90
56428;DHT22;42331;53.578;9.760;2023-07-31T12:55:09;15.50;99.90
56428;DHT22;42331;53.578;9.760;2023-07-31T12:57:41;15.40;99.90
56428;DHT22;42331;53.578;9.760;2023-07-31T13:00:14;15.40;99.90
56428;DHT22;42331;53.578;9.760;2023-07-31T13:02:45;15.40;99.90
56428;DHT22;42331;53.578;9.760;2023-07-31T13:05:16;15.40;99.90
56428;DHT22;42331;53.578;9.760;2023-07-31T13:07:47;15.50;99.90
56428;DHT22;42331;53.578;9.760;2023-07-31T13:10:19;15.60;99.90
56428;DHT22;42331;53.578;9.760;2023-07-31T13:12:49;15.50;99.90
56428;DHT22;42331;53.578;9.760;2023-07-31T13:15:20;15.50;99.90
56428;DHT22;42331;53.578;9.760;2023-07-31T13:17:51;15.60;99.90
56428;DHT22;42331;53.578;9.760;2023-07-31T13:20:22;15.70;99.90
56428;DHT22;42331;53.578;9.760;2023-07-31T13:22:52;15.80;99.90
56428;DHT22;42331;53.578;9.760;2023-07-31T13:25:23;15.90;99.90
56428;DHT22;42331;53.578;9.760;2023-07-31T13:27:54;15.90;99.90
56428;DHT22;42331;53.578;9.760;2023-07-31T13:30:25;16.00;99.90
56428;DHT22;42331;53.578;9.760;2023-07-31T13:32:56;16.00;99.90
56428;DHT22;42331;53.578;9.760;2023-07-31T13:35:27;16.00;99.90
56428;DHT22;42331;53.578;9.760;2023-07-31T13:37:57;16.00;99.90
56428;DHT22;42331;53.578;9.760;2023-07-31T13:40:28;16.00;99.90
56428;DHT22;42331;53.578;9.760;2023-07-31T13:42:59;16.00;99.90
56428;DHT22;42331;53.578;9.760;2023-07-31T13:45:30;16.00;99.90
56428;DHT22;42331;53.578;9.760;2023-07-31T13:48:00;16.00;99.90
56428;DHT22;42331;53.578;9.760;2023-07-31T13:50:31;16.00;99.90
56428;DHT22;42331;53.578;9.760;2023-07-31T13:53:02;16.10;99.90
56428;DHT22;42331;53.578;9.760;2023-07-31T13:55:32;16.20;99.90
56428;DHT22;42331;53.578;9.760;2023-07-31T13:58:03;16.40;99.90
56428;DHT22;42331;53.578;9.760;2023-07-31T14:00:34;16.50;99.90
56428;DHT22;42331;53.578;9.760;2023-07-31T14:03:05;16.60;99.90
56428;DHT22;42331;53.578;9.760;2023-07-31T14:05:36;16.70;99.90
56428;DHT22;42331;53.578;9.760;2023-07-31T14:08:07;16.80;99.90
56428;DHT22;42331;53.578;9.760;2023-07-31T14:10:37;16.90;99.90
56428;DHT22;42331;53.578;9.760;2023-07-31T14:13:08;17.00;99.90
56428;DHT22;42331;53.578;9.760;2023-07-31T14:15:42;17.10;99.90
56428;DHT22;42331;53.578;9.760;2023-07-31T14:18:13;17.20;99.90
56428;DHT22;42331;53.578;9.760;2023-07-31T14:20:44;17.20;99.90
56428;DHT22;42331;53.578;9.760;2023-07-31T14:23:14;17.30;99.90
56428;DHT22;42331;53.578;9.760;2023-07-31T14:25:46;17.40;99.90
56428;DHT22;42331;53.578;9.760;2023-07-31T14:28:17;17.30;99.90
56428;DHT22;42331;53.578;9.760;2023-07-31T14:30:48;17.40;99.90
56428;DHT22;42331;53.578;9.760;2023-07-31T14:33:19;17.50;99.90
56428;DHT22;42331;53.578;9.760;2023-07-31T14:35:49;17.60;99.90
56428;DHT22;42331;53.578;9.760;2023-07-31T14:38:20;17.60;99.90
56428;DHT22;42331;53.578;9.760;2023-07-31T14:40:51;17.60;99.90
56428;DHT22;42331;53.578;9.760;2023-07-31T14:43:22;17.60;99.90
56428;DHT22;42331;53.578;9.760;2023-07-31T14:45:52;17.60;99.90
56428;DHT22;42331;53.578;9.760;2023-07-31T14:48:26;17.70;99.90
56428;DHT22;42331;53.578;9.760;2023-07-31T14:50:57;17.70;99.90
56428;DHT22;42331;53.578;9.760;2023-07-31T14:53:28;17.60;99.90
56428;DHT22;42331;53.578;9.760;2023-07-31T14:55:59;17.60;99.90
56428;DHT22;42331;53.578;9.760;2023-07-31T14:58:29;17.60;99.90
56428;DHT22;42331;53.578;9.760;2023-07-31T15:01:00;17.50;99.90
56428;DHT22;42331;53.578;9.760;2023-07-31T15:03:31;17.50;99.90
56428;DHT22;42331;53.578;9.760;2023-07-31T15:06:02;17.50;99.90
56428;DHT22;42331;53.578;9.760;2023-07-31T15:08:32;17.50;99.90
56428;DHT22;42331;53.578;9.760;2023-07-31T15:11:03;17.50;99.90
56428;DHT22;42331;53.578;9.760;2023-07-31T15:13:34;17.50;99.90
56428;DHT22;42331;53.578;9.760;2023-07-31T15:16:05;17.50;99.90
56428;DHT22;42331;53.578;9.760;2023-07-31T15:18:36;17.50;99.90
56428;DHT22;42331;53.578;9.760;2023-07-31T15:21:06;17.60;99.90
56428;DHT22;42331;53.578;9.760;2023-07-31T15:23:39;17.60;99.90
56428;DHT22;42331;53.578;9.760;2023-07-31T15:26:10;17.60;99.90
56428;DHT22;42331;53.578;9.760;2023-07-31T15:28:41;17.70;99.90
56428;DHT22;42331;53.578;9.760;2023-07-31T15:31:11;17.70;99.90
56428;DHT22;42331;53.578;9.760;2023-07-31T15:33:42;17.60;99.90
56428;DHT22;42331;53.578;9.760;2023-07-31T15:36:13;17.60;99.90
56428;DHT22;42331;53.578;9.760;2023-07-31T15:38:44;17.60;99.90
56428;DHT22;42331;53.578;9.760;2023-07-31T15:41:14;17.50;99.90
56428;DHT22;42331;53.578;9.760;2023-07-31T15:43:45;17.50;99.90
56428;DHT22;42331;53.578;9.760;2023-07-31T15:46:17;17.50;99.90
56428;DHT22;42331;53.578;9.760;2023-07-31T15:48:47;17.50;99.90
56428;DHT22;42331;53.578;9.760;2023-07-31T15:51:18;17.50;99.90
56428;DHT22;42331;53.578;9.760;2023-07-31T15:53:49;17.50;99.90
56428;DHT22;42331;53.578;9.760;2023-07-31T15:56:20;17.50;99.90
56428;DHT22;42331;53.578;9.760;2023-07-31T15:58:51;17.50;99.90
56428;DHT22;42331;53.578;9.760;2023-07-31T16:01:21;17.50;99.90
56428;DHT22;42331;53.578;9.760;2023-07-31T16:03:52;17.50;99.90
56428;DHT22;42331;53.578;9.760;2023-07-31T16:06:23;17.50;99.90